Terminal Aerodrome Forecast
Issued by NWS Albany, NY

Home | Current Version | Previous Version | Text Only | Print | Product List | Glossary On
Versions: 1 2 3 4 5 6 7 8 9 10 11 12 13 14 15 16 17 18 19 20 21 22 23 24 25 26 27 28
000
FTUS41 KALY 270400 AAC
TAFPOU
TAF AMD
KPOU 270400Z 2704/2724 00000KT P6SM OVC020
     FM270800 VRB03KT 2SM BR OVC015
     FM271300 00000KT P6SM BKN015
     FM272000 16006KT P6SM BKN025=

USA.gov is the U.S. government's official web portal to all federal, state and local government web resources and services.